Time;durP1;ratioP1;P1;durP2;ratioP2;P2;SDS_P1;SDS_P2;PMS_P1;PMS_P2;Temp;Humidity;BMP_temperature;BMP_pressure;BME280_temperature;BME280_humidity;BME280_pressure;Samples;Min_cycle;Max_cycle;Signal;HPM_P1;HPM_P2
2022/11/16 00:02:11;;;;;;;59.13;17.63;;;;;;;;;;5019038;28;20049;-41
2022/11/16 00:04:38;;;;;;;68.43;19.63;;;;;;;;;;5016281;28;20284;-41
2022/11/16 00:07:05;;;;;;;63.28;20.17;;;;;;;;;;5013767;28;20049;-41
2022/11/16 00:09:31;;;;;;;56.63;18.65;;;;;;;;;;5017920;28;20038;-41
2022/11/16 00:12:00;;;;;;;68.03;20.25;;;;;;;;;;5016103;28;20042;-41
2022/11/16 00:14:28;;;;;;;58.03;17.35;;;;;;;;;;5016738;28;20137;-41
2022/11/16 00:16:55;;;;;;;63.38;19.42;;;;;;;;;;5019710;28;20089;-40
2022/11/16 00:19:22;;;;;;;60.45;18.13;;;;;;;;;;5019133;28;20107;-41
2022/11/16 00:21:49;;;;;;;71.75;20.20;;;;;;;;;;5016075;28;20580;-40
2022/11/16 00:24:16;;;;;;;55.35;17.98;;;;;;;;;;5020892;28;20033;-41
2022/11/16 00:26:43;;;;;;;91.45;22.17;;;;;;;;;;5021651;28;20061;-40
2022/11/16 00:29:15;;;;;;;59.17;19.17;;;;;;;;;;5022533;28;20065;-41
2022/11/16 00:31:43;;;;;;;73.82;21.40;;;;;;;;;;5015645;28;20056;-42
2022/11/16 00:34:09;;;;;;;69.63;20.90;;;;;;;;;;5017149;28;20053;-40
2022/11/16 00:36:36;;;;;;;62.17;20.88;;;;;;;;;;5010391;28;20050;-41
2022/11/16 00:39:03;;;;;;;51.55;17.70;;;;;;;;;;5020609;28;20046;-40
2022/11/16 00:41:30;;;;;;;56.97;18.75;;;;;;;;;;5019936;28;20165;-41
2022/11/16 00:43:56;;;;;;;55.58;16.60;;;;;;;;;;5022104;28;20046;-40
2022/11/16 00:46:23;;;;;;;51.38;17.05;;;;;;;;;;5006254;28;20100;-41
2022/11/16 00:48:50;;;;;;;75.97;20.13;;;;;;;;;;5019883;28;20037;-41
2022/11/16 00:51:16;;;;;;;69.43;19.48;;;;;;;;;;5019401;28;20038;-41
2022/11/16 00:53:43;;;;;;;71.00;19.00;;;;;;;;;;5018386;28;20404;-41
2022/11/16 00:56:09;;;;;;;70.88;20.20;;;;;;;;;;5024550;28;20045;-45
2022/11/16 00:58:41;;;;;;;61.63;18.25;;;;;;;;;;5018062;28;20100;-40
2022/11/16 01:01:10;;;;;;;60.88;19.60;;;;;;;;;;5015133;28;20092;-41
2022/11/16 01:03:37;;;;;;;79.43;20.02;;;;;;;;;;5018308;28;20129;-40
2022/11/16 01:06:05;;;;;;;61.45;21.80;;;;;;;;;;5016717;28;20117;-40
2022/11/16 01:08:32;;;;;;;54.10;19.73;;;;;;;;;;5020726;28;20072;-41
2022/11/16 01:12:07;;;;;;;69.22;20.40;;;;;;;;;;5020910;28;20049;-41
2022/11/16 01:13:46;;;;;;;79.50;21.05;;;;;;;;;;4999808;28;20415;-40
2022/11/16 01:16:14;;;;;;;63.60;19.05;;;;;;;;;;5018219;28;20100;-41
2022/11/16 01:18:41;;;;;;;56.65;18.77;;;;;;;;;;5017247;28;20059;-41
2022/11/16 01:21:08;;;;;;;64.82;19.98;;;;;;;;;;5012818;28;20049;-40
2022/11/16 01:23:35;;;;;;;81.50;20.95;;;;;;;;;;5021004;28;20092;-41
2022/11/16 01:26:01;;;;;;;56.17;18.75;;;;;;;;;;5019469;28;20081;-40
2022/11/16 01:28:31;;;;;;;61.40;18.77;;;;;;;;;;5014182;28;20041;-40
2022/11/16 01:30:59;;;;;;;69.65;20.33;;;;;;;;;;5009959;28;20149;-40
2022/11/16 01:33:27;;;;;;;56.50;18.35;;;;;;;;;;5018088;28;20034;-40
2022/11/16 01:35:54;;;;;;;74.55;20.10;;;;;;;;;;5017393;28;20121;-40
2022/11/16 01:38:23;;;;;;;50.38;16.77;;;;;;;;;;5021336;28;20056;-40
2022/11/16 01:40:55;;;;;;;47.67;16.92;;;;;;;;;;5014169;28;20740;-40
2022/11/16 01:43:24;;;;;;;66.57;19.10;;;;;;;;;;5014884;28;20041;-41
2022/11/16 01:45:55;;;;;;;47.03;16.95;;;;;;;;;;5009356;28;20054;-40
2022/11/16 01:48:24;;;;;;;64.68;19.05;;;;;;;;;;5009754;28;20379;-40
2022/11/16 01:50:52;;;;;;;71.03;18.33;;;;;;;;;;5017579;28;20053;-40
2022/11/16 01:53:19;;;;;;;45.58;16.20;;;;;;;;;;5019616;28;20201;-40
2022/11/16 01:55:50;;;;;;;50.22;17.83;;;;;;;;;;4998683;28;20048;-40
2022/11/16 01:58:28;;;;;;;56.00;18.75;;;;;;;;;;5013662;28;20040;-40
2022/11/16 02:01:01;;;;;;;57.05;18.08;;;;;;;;;;5013384;28;20049;-40
2022/11/16 02:03:43;;;;;;;71.93;19.90;;;;;;;;;;5015448;28;20057;-40
2022/11/16 02:06:13;;;;;;;57.03;17.92;;;;;;;;;;5015564;28;20096;-40
2022/11/16 02:11:57;;;;;;;89.18;21.48;;;;;;;;;;5015495;28;20065;-40
2022/11/16 02:14:31;;;;;;;65.50;21.58;;;;;;;;;;5018405;28;20081;-40
2022/11/16 02:17:01;;;;;;;69.07;21.73;;;;;;;;;;5012292;28;20498;-40
2022/11/16 02:20:02;;;;;;;66.85;20.95;;;;;;;;;;5015974;28;20575;-41
2022/11/16 02:22:29;;;;;;;67.63;22.77;;;;;;;;;;4996108;28;20549;-40
2022/11/16 02:25:05;;;;;;;68.28;22.30;;;;;;;;;;4991110;28;20553;-40
2022/11/16 02:27:31;;;;;;;76.75;22.77;;;;;;;;;;4979129;28;20123;-40
2022/11/16 02:29:58;;;;;;;87.35;23.50;;;;;;;;;;4993822;28;20069;-40
2022/11/16 02:32:33;;;;;;;59.10;22.73;;;;;;;;;;4998218;28;20049;-43
2022/11/16 02:35:03;;;;;;;66.85;21.35;;;;;;;;;;4993477;28;20050;-40
2022/11/16 02:37:32;;;;;;;53.25;20.50;;;;;;;;;;4978560;28;20046;-41
2022/11/16 02:40:01;;;;;;;69.35;23.88;;;;;;;;;;4991454;28;20054;-40
2022/11/16 02:42:48;;;;;;;69.25;22.42;;;;;;;;;;4979923;28;20074;-40
2022/11/16 02:45:17;;;;;;;97.28;25.77;;;;;;;;;;4980907;28;20074;-40
2022/11/16 02:47:44;;;;;;;73.80;22.25;;;;;;;;;;4980517;28;20046;-40
2022/11/16 02:50:15;;;;;;;69.93;21.92;;;;;;;;;;4980402;28;20042;-40
2022/11/16 02:52:41;;;;;;;61.75;21.70;;;;;;;;;;4995765;28;20058;-40
2022/11/16 02:55:09;;;;;;;57.17;21.20;;;;;;;;;;4991668;28;20054;-40
2022/11/16 02:57:56;;;;;;;78.30;22.88;;;;;;;;;;4978436;28;20038;-40
2022/11/16 03:00:26;;;;;;;71.57;21.42;;;;;;;;;;5046986;28;20565;-41
2022/11/16 03:02:58;;;;;;;69.45;21.95;;;;;;;;;;5015932;28;20410;-40
2022/11/16 03:05:31;;;;;;;75.90;23.08;;;;;;;;;;5017206;28;20038;-40
2022/11/16 03:08:07;;;;;;;63.45;23.98;;;;;;;;;;5019308;28;20100;-40
2022/11/16 03:13:25;;;;;;;77.40;24.63;;;;;;;;;;5010869;28;20049;-40
2022/11/16 03:15:53;;;;;;;68.15;22.17;;;;;;;;;;5013691;28;20534;-40
2022/11/16 03:18:22;;;;;;;71.13;23.23;;;;;;;;;;5012068;28;20029;-41
2022/11/16 03:20:51;;;;;;;75.35;24.83;;;;;;;;;;5015656;28;20045;-40
2022/11/16 03:23:18;;;;;;;87.57;24.25;;;;;;;;;;5017267;28;20125;-40
2022/11/16 03:25:54;;;;;;;85.43;23.77;;;;;;;;;;5011478;28;20215;-39
2022/11/16 03:28:24;;;;;;;66.00;22.38;;;;;;;;;;5013176;28;20042;-40
2022/11/16 03:31:14;;;;;;;82.32;23.35;;;;;;;;;;5014643;28;20076;-40
2022/11/16 03:33:43;;;;;;;90.60;23.30;;;;;;;;;;5008378;28;20502;-40
2022/11/16 03:36:13;;;;;;;66.30;21.63;;;;;;;;;;5014706;28;20053;-40
2022/11/16 03:38:41;;;;;;;75.88;23.08;;;;;;;;;;5000722;28;20038;-40
2022/11/16 03:41:09;;;;;;;73.68;23.02;;;;;;;;;;5016889;28;20129;-40
2022/11/16 03:43:37;;;;;;;76.10;23.70;;;;;;;;;;5014794;28;20037;-40
2022/11/16 03:46:05;;;;;;;81.85;24.63;;;;;;;;;;5014145;28;20049;-40
2022/11/16 03:48:35;;;;;;;77.68;24.30;;;;;;;;;;5014010;28;20052;-40
2022/11/16 03:51:07;;;;;;;66.20;23.67;;;;;;;;;;5006708;28;20073;-40
2022/11/16 03:53:34;;;;;;;71.43;22.55;;;;;;;;;;5021126;28;20042;-40
2022/11/16 03:56:01;;;;;;;68.05;22.52;;;;;;;;;;5026693;28;20044;-40
2022/11/16 03:58:28;;;;;;;80.20;24.88;;;;;;;;;;5015869;28;20059;-41
2022/11/16 04:00:55;;;;;;;68.78;22.48;;;;;;;;;;5016246;28;20093;-41
2022/11/16 04:03:22;;;;;;;82.55;24.00;;;;;;;;;;5015126;28;20097;-41
2022/11/16 04:25:30;;;;;;;75.50;24.23;;;;;;;;;;5010762;28;20137;-40
2022/11/16 04:28:13;;;;;;;77.57;24.60;;;;;;;;;;5016321;28;20033;-41
2022/11/16 04:39:31;;;;;;;63.58;21.65;;;;;;;;;;5016709;28;20041;-41
2022/11/16 04:42:13;;;;;;;78.20;25.98;;;;;;;;;;5019343;28;20066;-40
2022/11/16 04:47:33;;;;;;;77.03;22.88;;;;;;;;;;5017438;28;20049;-40
2022/11/16 04:50:00;;;;;;;62.80;23.98;;;;;;;;;;5047915;28;20062;-41
2022/11/16 04:52:27;;;;;;;66.88;22.00;;;;;;;;;;5013785;28;20037;-42
2022/11/16 04:54:54;;;;;;;75.20;23.65;;;;;;;;;;5015958;28;20520;-40
2022/11/16 04:57:21;;;;;;;70.53;22.88;;;;;;;;;;5010906;28;20038;-41
2022/11/16 04:59:48;;;;;;;72.28;23.13;;;;;;;;;;5016106;28;20088;-41
2022/11/16 05:02:15;;;;;;;96.13;25.05;;;;;;;;;;5024609;28;20053;-40
2022/11/16 05:04:47;;;;;;;70.13;22.58;;;;;;;;;;5016739;28;20069;-40
2022/11/16 05:07:16;;;;;;;68.10;23.75;;;;;;;;;;5015806;28;20046;-40
2022/11/16 05:09:45;;;;;;;85.40;27.48;;;;;;;;;;5012312;28;20057;-42
2022/11/16 05:12:13;;;;;;;90.85;28.42;;;;;;;;;;5002044;28;20041;-40
2022/11/16 05:14:41;;;;;;;102.13;30.73;;;;;;;;;;5018898;28;20049;-40
2022/11/16 05:17:08;;;;;;;76.45;26.67;;;;;;;;;;5022877;28;20076;-41
2022/11/16 05:22:22;;;;;;;72.90;26.58;;;;;;;;;;5017036;28;20113;-41
2022/11/16 05:24:50;;;;;;;72.75;28.77;;;;;;;;;;5017794;28;20088;-41
2022/11/16 05:27:17;;;;;;;88.80;28.73;;;;;;;;;;5013729;28;20045;-40
2022/11/16 05:29:44;;;;;;;95.10;28.48;;;;;;;;;;5018830;28;20100;-41
2022/11/16 05:32:14;;;;;;;89.40;27.50;;;;;;;;;;5017915;28;20080;-41
2022/11/16 05:34:41;;;;;;;75.97;25.40;;;;;;;;;;5017515;28;20454;-40
2022/11/16 05:37:08;;;;;;;59.40;23.52;;;;;;;;;;5015679;28;20041;-41
2022/11/16 05:39:34;;;;;;;83.22;25.40;;;;;;;;;;5018015;28;20098;-41
2022/11/16 05:42:01;;;;;;;70.68;23.98;;;;;;;;;;5016255;28;20057;-41
2022/11/16 05:44:28;;;;;;;63.13;23.30;;;;;;;;;;5020179;28;20048;-41
2022/11/16 05:46:55;;;;;;;77.93;25.10;;;;;;;;;;5000088;28;20050;-41
2022/11/16 05:49:22;;;;;;;94.00;27.63;;;;;;;;;;5014851;28;20060;-40
2022/11/16 05:51:49;;;;;;;82.85;27.40;;;;;;;;;;5009577;28;20498;-41
2022/11/16 05:54:19;;;;;;;88.10;27.23;;;;;;;;;;5014103;28;20038;-42
2022/11/16 05:56:46;;;;;;;106.97;30.20;;;;;;;;;;5016672;28;20039;-40
2022/11/16 05:59:16;;;;;;;99.93;30.77;;;;;;;;;;5014847;28;20096;-39
2022/11/16 06:01:44;;;;;;;101.13;29.67;;;;;;;;;;5007707;28;20823;-40
2022/11/16 06:04:10;;;;;;;99.97;30.65;;;;;;;;;;5010028;28;20565;-41
2022/11/16 06:06:37;;;;;;;95.90;31.15;;;;;;;;;;5005613;28;20489;-40
2022/11/16 06:09:04;;;;;;;82.80;26.75;;;;;;;;;;5004417;28;20053;-41
2022/11/16 06:11:32;;;;;;;97.93;29.73;;;;;;;;;;5017729;28;20048;-41
2022/11/16 06:14:03;;;;;;;70.53;25.85;;;;;;;;;;5019166;28;20439;-42
2022/11/16 06:16:29;;;;;;;62.55;23.52;;;;;;;;;;5013798;28;20068;-40
2022/11/16 06:18:58;;;;;;;75.20;23.50;;;;;;;;;;5014701;28;20045;-42
2022/11/16 06:21:24;;;;;;;64.68;23.02;;;;;;;;;;5017690;28;20042;-42
2022/11/16 06:23:52;;;;;;;77.47;24.10;;;;;;;;;;5017890;28;20100;-41
2022/11/16 06:26:19;;;;;;;81.40;23.92;;;;;;;;;;5017744;28;20395;-40
2022/11/16 06:28:46;;;;;;;83.03;24.88;;;;;;;;;;5009550;28;20042;-40
2022/11/16 06:31:13;;;;;;;67.43;21.92;;;;;;;;;;5006863;28;20042;-40
2022/11/16 06:33:40;;;;;;;100.53;26.90;;;;;;;;;;5011373;28;20046;-40
2022/11/16 06:36:14;;;;;;;87.55;27.92;;;;;;;;;;5006005;28;20064;-40
2022/11/16 06:38:41;;;;;;;82.63;24.95;;;;;;;;;;5005916;28;20042;-40
2022/11/16 06:41:08;;;;;;;88.53;25.80;;;;;;;;;;5009547;28;20069;-40
2022/11/16 06:43:40;;;;;;;86.18;28.02;;;;;;;;;;5007158;28;20069;-41
2022/11/16 06:46:07;;;;;;;85.43;27.80;;;;;;;;;;5008767;28;20517;-40
2022/11/16 06:48:34;;;;;;;80.45;26.77;;;;;;;;;;5017265;28;20048;-41
2022/11/16 06:51:06;;;;;;;73.18;26.70;;;;;;;;;;5014457;28;20664;-41
2022/11/16 06:53:33;;;;;;;80.68;25.48;;;;;;;;;;5015637;28;20686;-41
2022/11/16 06:56:01;;;;;;;71.88;23.88;;;;;;;;;;5014099;28;20049;-41
2022/11/16 06:58:30;;;;;;;76.88;25.58;;;;;;;;;;5014478;28;20072;-42
2022/11/16 07:00:57;;;;;;;87.38;26.17;;;;;;;;;;5013338;28;20072;-40
2022/11/16 07:03:24;;;;;;;77.63;25.55;;;;;;;;;;5013014;28;20039;-41
2022/11/16 07:05:50;;;;;;;78.80;24.45;;;;;;;;;;5016498;28;20046;-41
2022/11/16 07:08:18;;;;;;;80.85;23.52;;;;;;;;;;5016467;28;20041;-40
2022/11/16 07:10:44;;;;;;;74.90;22.83;;;;;;;;;;5013147;28;20056;-41
2022/11/16 07:13:11;;;;;;;57.38;22.70;;;;;;;;;;5018657;28;20375;-42
2022/11/16 07:15:38;;;;;;;64.70;23.50;;;;;;;;;;5012431;28;20045;-40
2022/11/16 07:18:06;;;;;;;58.60;21.15;;;;;;;;;;5016482;28;20038;-41
2022/11/16 07:20:36;;;;;;;61.10;20.48;;;;;;;;;;5004409;28;20133;-41
2022/11/16 07:23:03;;;;;;;56.28;21.52;;;;;;;;;;5022390;28;20041;-42
2022/11/16 07:25:31;;;;;;;73.85;24.27;;;;;;;;;;5019762;28;20056;-41
2022/11/16 07:27:58;;;;;;;70.85;25.23;;;;;;;;;;5018358;28;20717;-42
2022/11/16 07:30:25;;;;;;;90.07;26.52;;;;;;;;;;5016200;28;20057;-40
2022/11/16 07:33:01;;;;;;;70.50;22.58;;;;;;;;;;5015922;28;20467;-40
2022/11/16 07:36:07;;;;;;;69.10;22.83;;;;;;;;;;5013741;28;20510;-41
2022/11/16 07:38:33;;;;;;;52.63;21.05;;;;;;;;;;5016259;28;20045;-41
2022/11/16 07:41:02;;;;;;;65.93;24.08;;;;;;;;;;5011993;28;20041;-40
2022/11/16 07:43:33;;;;;;;70.28;26.50;;;;;;;;;;5014245;28;20065;-41
2022/11/16 07:46:10;;;;;;;73.65;25.50;;;;;;;;;;5009814;28;20052;-41
2022/11/16 07:48:57;;;;;;;56.47;23.33;;;;;;;;;;5026928;28;20541;-41
2022/11/16 07:51:42;;;;;;;60.05;22.10;;;;;;;;;;5012355;28;20212;-40
2022/11/16 07:54:18;;;;;;;61.03;22.80;;;;;;;;;;5012802;28;20449;-40
2022/11/16 07:56:45;;;;;;;76.43;21.42;;;;;;;;;;5011474;28;20080;-41
2022/11/16 07:59:11;;;;;;;75.55;24.63;;;;;;;;;;5012382;28;20088;-41
2022/11/16 08:01:42;;;;;;;56.47;20.33;;;;;;;;;;5010740;28;20420;-42
2022/11/16 08:04:10;;;;;;;66.43;21.45;;;;;;;;;;5011811;28;20037;-42
2022/11/16 08:06:37;;;;;;;49.15;18.30;;;;;;;;;;5000115;28;20045;-42
2022/11/16 08:09:03;;;;;;;51.40;18.17;;;;;;;;;;5018651;28;20045;-40
2022/11/16 08:11:32;;;;;;;71.30;21.77;;;;;;;;;;5008439;28;20049;-40
2022/11/16 08:13:58;;;;;;;50.53;19.42;;;;;;;;;;5010663;28;20069;-41
2022/11/16 08:16:25;;;;;;;62.92;21.08;;;;;;;;;;5006447;28;20541;-41
2022/11/16 08:19:01;;;;;;;54.85;18.60;;;;;;;;;;5005747;28;20696;-40
2022/11/16 08:21:27;;;;;;;40.30;14.35;;;;;;;;;;5010668;28;20092;-42
2022/11/16 08:23:54;;;;;;;59.40;18.58;;;;;;;;;;5015816;28;20065;-41
2022/11/16 08:26:24;;;;;;;44.08;13.63;;;;;;;;;;5021061;28;20049;-40
2022/11/16 08:28:56;;;;;;;33.17;11.35;;;;;;;;;;5016922;28;20534;-41
2022/11/16 08:31:28;;;;;;;63.53;17.05;;;;;;;;;;5017050;28;20607;-42
2022/11/16 08:34:04;;;;;;;47.58;13.88;;;;;;;;;;5014035;28;20042;-41
2022/11/16 08:36:32;;;;;;;35.33;13.82;;;;;;;;;;5016738;28;20104;-41
2022/11/16 08:39:00;;;;;;;46.20;17.00;;;;;;;;;;5017976;28;20046;-41
2022/11/16 08:41:29;;;;;;;33.28;13.63;;;;;;;;;;5007500;28;20053;-40
2022/11/16 08:43:58;;;;;;;46.83;15.40;;;;;;;;;;5018519;28;20072;-42
2022/11/16 08:46:24;;;;;;;32.80;13.48;;;;;;;;;;5017145;28;20045;-40
2022/11/16 08:48:59;;;;;;;31.75;11.65;;;;;;;;;;5014476;28;20057;-40
2022/11/16 08:51:25;;;;;;;43.65;12.35;;;;;;;;;;5020189;28;20554;-40
2022/11/16 08:53:58;;;;;;;34.53;10.82;;;;;;;;;;5017925;28;20069;-41
2022/11/16 08:56:28;;;;;;;34.67;10.52;;;;;;;;;;5019763;28;20489;-40
2022/11/16 08:58:56;;;;;;;57.47;13.23;;;;;;;;;;5013815;28;20140;-40
2022/11/16 09:01:26;;;;;;;31.90;8.68;;;;;;;;;;5017127;28;20042;-41
2022/11/16 09:03:53;;;;;;;51.10;10.45;;;;;;;;;;5014118;28;20053;-40
2022/11/16 09:06:20;;;;;;;35.80;8.95;;;;;;;;;;5019585;28;20041;-42
2022/11/16 09:08:47;;;;;;;46.15;10.23;;;;;;;;;;5002193;28;20054;-40
2022/11/16 09:11:15;;;;;;;25.02;8.02;;;;;;;;;;5022127;28;20045;-41
2022/11/16 09:13:42;;;;;;;48.40;11.13;;;;;;;;;;5016003;28;20120;-40
2022/11/16 09:16:09;;;;;;;31.70;9.20;;;;;;;;;;5019445;28;20047;-40
2022/11/16 09:18:35;;;;;;;34.70;11.63;;;;;;;;;;5016657;28;20034;-40
2022/11/16 09:21:02;;;;;;;32.50;9.18;;;;;;;;;;5015358;28;20637;-41
2022/11/16 09:23:29;;;;;;;34.85;10.48;;;;;;;;;;5021288;28;20550;-40
2022/11/16 09:25:59;;;;;;;29.50;9.13;;;;;;;;;;5019959;28;20042;-41
2022/11/16 09:28:26;;;;;;;38.63;11.63;;;;;;;;;;5016166;28;20048;-41
2022/11/16 09:30:52;;;;;;;60.08;14.90;;;;;;;;;;5018901;28;20052;-40
2022/11/16 09:33:19;;;;;;;32.60;11.43;;;;;;;;;;5014190;28;20042;-40
2022/11/16 09:35:45;;;;;;;50.05;13.27;;;;;;;;;;5019437;28;20383;-40
2022/11/16 09:38:12;;;;;;;29.65;9.68;;;;;;;;;;5019821;28;20132;-41
2022/11/16 09:40:49;;;;;;;40.67;11.68;;;;;;;;;;5016157;28;20056;-40
2022/11/16 09:43:21;;;;;;;55.60;11.90;;;;;;;;;;5012886;28;20189;-41
2022/11/16 09:45:54;;;;;;;40.63;10.00;;;;;;;;;;5018209;28;20044;-40
2022/11/16 09:48:21;;;;;;;44.30;11.68;;;;;;;;;;5015127;28;20030;-40
2022/11/16 09:50:54;;;;;;;30.15;7.63;;;;;;;;;;5019735;28;20034;-40
2022/11/16 09:53:32;;;;;;;39.92;8.40;;;;;;;;;;5017039;28;20042;-40
2022/11/16 09:56:05;;;;;;;20.38;6.40;;;;;;;;;;5018768;28;20054;-40
2022/11/16 09:58:34;;;;;;;38.40;7.85;;;;;;;;;;5011917;28;20030;-40
2022/11/16 10:01:22;;;;;;;30.83;6.78;;;;;;;;;;5015526;28;20057;-40
2022/11/16 10:03:52;;;;;;;32.85;6.47;;;;;;;;;;5014717;28;20907;-40
2022/11/16 10:06:26;;;;;;;32.00;7.35;;;;;;;;;;5016567;28;20045;-40
2022/11/16 10:08:55;;;;;;;41.28;7.90;;;;;;;;;;5018842;28;20117;-40
2022/11/16 10:11:40;;;;;;;52.40;9.30;;;;;;;;;;5012270;28;20392;-40
2022/11/16 10:14:12;;;;;;;27.10;8.13;;;;;;;;;;5008673;28;20038;-39
2022/11/16 10:16:43;;;;;;;39.60;7.90;;;;;;;;;;5011365;28;20061;-40
2022/11/16 10:19:17;;;;;;;39.33;7.50;;;;;;;;;;5014176;28;20037;-39
2022/11/16 10:21:46;;;;;;;50.90;8.30;;;;;;;;;;5005929;28;20041;-40
2022/11/16 10:24:22;;;;;;;30.13;7.40;;;;;;;;;;5006713;28;20752;-41
2022/11/16 10:26:54;;;;;;;37.25;7.57;;;;;;;;;;5007421;28;20479;-41
2022/11/16 10:29:35;;;;;;;48.50;7.97;;;;;;;;;;5008223;28;20041;-40
2022/11/16 10:32:02;;;;;;;44.60;8.73;;;;;;;;;;5004940;28;20038;-41
2022/11/16 10:34:50;;;;;;;63.03;9.75;;;;;;;;;;5007061;28;20133;-42
2022/11/16 10:37:17;;;;;;;46.90;9.02;;;;;;;;;;5004639;28;20065;-40
2022/11/16 10:39:45;;;;;;;54.75;18.40;;;;;;;;;;5007396;28;20042;-40
2022/11/16 10:42:17;;;;;;;34.20;6.97;;;;;;;;;;5008072;28;20042;-41
2022/11/16 10:44:46;;;;;;;40.55;6.78;;;;;;;;;;5005685;28;20494;-40
2022/11/16 10:47:19;;;;;;;33.05;6.30;;;;;;;;;;5006330;28;20044;-40
2022/11/16 10:49:49;;;;;;;36.75;6.53;;;;;;;;;;5009383;28;20042;-41
2022/11/16 10:52:15;;;;;;;24.42;5.50;;;;;;;;;;5009467;28;20033;-40
2022/11/16 10:54:42;;;;;;;20.95;5.07;;;;;;;;;;5007673;28;20080;-41
2022/11/16 10:57:12;;;;;;;23.83;5.32;;;;;;;;;;5007509;28;20115;-40
2022/11/16 10:59:43;;;;;;;49.58;7.70;;;;;;;;;;5006829;28;20120;-40
2022/11/16 11:02:33;;;;;;;35.22;6.18;;;;;;;;;;5011108;28;20080;-40
2022/11/16 11:05:01;;;;;;;37.08;7.03;;;;;;;;;;5009834;28;20506;-41
2022/11/16 11:07:38;;;;;;;30.10;6.97;;;;;;;;;;5010094;28;20040;-41
2022/11/16 11:10:20;;;;;;;23.45;5.30;;;;;;;;;;5005032;28;20793;-40
2022/11/16 11:13:00;;;;;;;28.73;6.65;;;;;;;;;;5008246;28;20556;-40
2022/11/16 11:15:27;;;;;;;31.17;5.05;;;;;;;;;;5005128;28;20052;-40
2022/11/16 11:18:12;;;;;;;36.15;5.32;;;;;;;;;;5013889;28;20041;-41
2022/11/16 11:20:40;;;;;;;40.10;5.72;;;;;;;;;;5008425;28;20051;-42
2022/11/16 11:23:15;;;;;;;27.30;5.00;;;;;;;;;;5004661;28;20753;-40
2022/11/16 11:25:55;;;;;;;47.28;6.82;;;;;;;;;;5008487;28;20041;-40
2022/11/16 11:28:32;;;;;;;53.60;13.10;;;;;;;;;;5009576;28;20064;-40
2022/11/16 11:31:01;;;;;;;29.20;5.70;;;;;;;;;;5008785;28;20037;-41
2022/11/16 11:33:48;;;;;;;48.75;7.13;;;;;;;;;;5003902;28;20046;-41
2022/11/16 11:36:17;;;;;;;35.30;5.43;;;;;;;;;;5006288;28;20560;-42
2022/11/16 11:39:16;;;;;;;46.33;6.60;;;;;;;;;;5010752;28;20046;-41
2022/11/16 11:41:44;;;;;;;49.08;6.40;;;;;;;;;;4985873;28;20136;-41
2022/11/16 11:44:15;;;;;;;26.88;5.18;;;;;;;;;;4990058;28;20091;-41
2022/11/16 11:46:48;;;;;;;38.08;6.90;;;;;;;;;;4984276;28;20527;-40
2022/11/16 11:49:39;;;;;;;33.67;5.60;;;;;;;;;;4984213;28;20034;-42
2022/11/16 11:52:13;;;;;;;38.05;6.20;;;;;;;;;;4989909;28;20085;-41
2022/11/16 11:54:46;;;;;;;23.67;4.30;;;;;;;;;;4983170;28;20038;-41
2022/11/16 11:57:19;;;;;;;24.83;3.85;;;;;;;;;;4981885;28;20581;-41
2022/11/16 11:59:46;;;;;;;58.28;6.95;;;;;;;;;;4987808;28;20496;-40
2022/11/16 12:02:25;;;;;;;26.17;3.63;;;;;;;;;;4984242;28;20053;-41
2022/11/16 12:05:03;;;;;;;38.42;5.05;;;;;;;;;;4985979;28;20113;-41
2022/11/16 12:07:35;;;;;;;38.60;10.02;;;;;;;;;;4988166;28;20156;-42
2022/11/16 12:10:02;;;;;;;54.63;11.13;;;;;;;;;;4986794;28;20045;-42
2022/11/16 12:12:47;;;;;;;40.75;7.10;;;;;;;;;;4995460;28;20042;-41
2022/11/16 12:15:22;;;;;;;26.40;5.43;;;;;;;;;;4994216;28;20076;-40
2022/11/16 12:18:04;;;;;;;55.00;10.73;;;;;;;;;;5001033;28;20507;-40
2022/11/16 12:20:41;;;;;;;29.80;6.15;;;;;;;;;;5010056;28;20040;-40
2022/11/16 12:23:23;;;;;;;20.88;5.05;;;;;;;;;;5009968;28;20559;-41
2022/11/16 12:26:08;;;;;;;34.75;5.75;;;;;;;;;;5009019;28;20100;-40
2022/11/16 12:28:44;;;;;;;22.65;4.40;;;;;;;;;;5004856;28;20130;-41
2022/11/16 12:31:16;;;;;;;38.88;6.03;;;;;;;;;;5007238;28;20048;-39
2022/11/16 12:33:46;;;;;;;43.85;6.25;;;;;;;;;;5008851;28;20042;-40
2022/11/16 12:36:28;;;;;;;24.48;5.32;;;;;;;;;;5009869;28;20045;-41
2022/11/16 12:38:57;;;;;;;57.53;9.57;;;;;;;;;;5007835;28;20038;-40
2022/11/16 12:41:32;;;;;;;39.17;5.90;;;;;;;;;;5011301;28;20038;-41
2022/11/16 12:44:01;;;;;;;50.25;10.30;;;;;;;;;;5009215;28;20061;-41
2022/11/16 12:46:50;;;;;;;38.95;7.80;;;;;;;;;;5010361;28;20049;-41
2022/11/16 12:49:20;;;;;;;40.90;7.47;;;;;;;;;;5009063;28;20734;-40
2022/11/16 12:51:49;;;;;;;36.30;5.97;;;;;;;;;;5013586;28;20041;-42
2022/11/16 12:54:28;;;;;;;35.20;6.07;;;;;;;;;;5009684;28;20049;-41
2022/11/16 12:56:57;;;;;;;40.85;7.28;;;;;;;;;;5010686;28;20041;-42
2022/11/16 12:59:42;;;;;;;27.20;5.32;;;;;;;;;;5009708;28;20041;-40
2022/11/16 13:02:47;;;;;;;42.58;7.10;;;;;;;;;;5013458;28;20392;-40
2022/11/16 13:05:22;;;;;;;45.50;10.65;;;;;;;;;;4993171;28;20053;-40
2022/11/16 13:07:53;;;;;;;37.78;9.93;;;;;;;;;;4992398;28;20129;-43
2022/11/16 13:10:23;;;;;;;38.05;7.75;;;;;;;;;;4988721;28;20089;-43
2022/11/16 13:12:51;;;;;;;35.60;9.85;;;;;;;;;;4992390;28;20039;-41
2022/11/16 13:15:37;;;;;;;36.10;8.15;;;;;;;;;;4989053;28;20513;-42
2022/11/16 13:18:06;;;;;;;44.00;8.50;;;;;;;;;;4991345;28;20058;-42
2022/11/16 13:20:44;;;;;;;26.05;6.75;;;;;;;;;;4991349;28;20042;-42
2022/11/16 13:23:20;;;;;;;47.95;8.10;;;;;;;;;;4975360;28;20611;-42
2022/11/16 13:26:12;;;;;;;37.83;8.30;;;;;;;;;;4991283;28;20197;-42
2022/11/16 13:28:43;;;;;;;32.20;8.27;;;;;;;;;;4984260;28;20250;-42
2022/11/16 13:31:13;;;;;;;51.25;12.52;;;;;;;;;;4988934;28;20042;-42
2022/11/16 13:33:43;;;;;;;46.25;13.57;;;;;;;;;;4992566;28;20458;-42
2022/11/16 13:36:31;;;;;;;44.88;11.68;;;;;;;;;;4997430;28;20108;-42
2022/11/16 13:38:57;;;;;;;31.83;5.55;;;;;;;;;;5007266;28;20046;-42
2022/11/16 13:41:25;;;;;;;42.88;6.15;;;;;;;;;;5013633;28;20037;-42
2022/11/16 13:43:51;;;;;;;35.85;5.25;;;;;;;;;;5010327;28;20069;-42
2022/11/16 13:46:18;;;;;;;32.55;5.20;;;;;;;;;;5013352;28;20052;-42
2022/11/16 13:49:05;;;;;;;42.03;8.43;;;;;;;;;;5008700;28;20038;-42
2022/11/16 13:51:31;;;;;;;26.75;6.30;;;;;;;;;;5008948;28;21017;-42
2022/11/16 13:53:58;;;;;;;37.95;7.40;;;;;;;;;;5009926;28;20030;-42
2022/11/16 13:56:48;;;;;;;52.85;13.43;;;;;;;;;;5009092;28;20053;-42
2022/11/16 13:59:15;;;;;;;31.10;8.82;;;;;;;;;;5011319;28;20042;-41
2022/11/16 14:01:53;;;;;;;47.20;10.98;;;;;;;;;;5008789;28;20042;-42
2022/11/16 14:04:34;;;;;;;61.20;16.40;;;;;;;;;;5008311;28;20388;-42
2022/11/16 14:07:00;;;;;;;40.63;12.38;;;;;;;;;;5008700;28;20048;-42
2022/11/16 14:09:40;;;;;;;43.60;12.60;;;;;;;;;;5007208;28;20403;-43
2022/11/16 14:12:42;;;;;;;58.30;18.25;;;;;;;;;;5008671;28;20840;-42
2022/11/16 14:15:13;;;;;;;39.42;13.18;;;;;;;;;;4992771;28;20534;-42
2022/11/16 14:17:59;;;;;;;43.15;12.02;;;;;;;;;;4993734;28;20061;-42
2022/11/16 14:20:36;;;;;;;49.72;15.32;;;;;;;;;;4991291;28;20077;-42
2022/11/16 14:23:14;;;;;;;56.47;17.50;;;;;;;;;;4992353;28;20060;-42
2022/11/16 14:25:55;;;;;;;49.83;14.05;;;;;;;;;;4988858;28;20046;-42
2022/11/16 14:28:37;;;;;;;36.38;11.40;;;;;;;;;;4986567;28;20046;-42
2022/11/16 14:31:19;;;;;;;51.78;16.20;;;;;;;;;;4986715;28;20388;-42
2022/11/16 14:33:48;;;;;;;58.63;19.83;;;;;;;;;;4986129;28;20049;-43
2022/11/16 14:36:15;;;;;;;38.20;11.93;;;;;;;;;;4989741;28;20068;-43
2022/11/16 14:38:42;;;;;;;47.47;13.98;;;;;;;;;;4991176;28;20396;-42
2022/11/16 14:41:18;;;;;;;44.28;14.35;;;;;;;;;;4992158;28;20053;-42
2022/11/16 14:43:46;;;;;;;97.20;25.92;;;;;;;;;;4985743;28;20068;-43
2022/11/16 14:46:24;;;;;;;51.50;15.15;;;;;;;;;;4991826;28;20037;-42
2022/11/16 14:48:53;;;;;;;33.92;10.65;;;;;;;;;;4991577;28;20514;-43
2022/11/16 14:51:21;;;;;;;40.63;10.38;;;;;;;;;;5008246;28;20068;-42
2022/11/16 14:53:49;;;;;;;45.90;14.00;;;;;;;;;;5012994;28;20045;-43
2022/11/16 14:56:16;;;;;;;47.65;11.00;;;;;;;;;;5012150;28;20046;-42
2022/11/16 14:58:50;;;;;;;45.90;13.02;;;;;;;;;;5007475;28;20096;-43
2022/11/16 15:01:19;;;;;;;34.75;9.50;;;;;;;;;;5008040;28;20052;-42
2022/11/16 15:03:48;;;;;;;57.35;11.02;;;;;;;;;;5007636;28;20052;-42
2022/11/16 15:06:15;;;;;;;34.17;9.15;;;;;;;;;;5008189;28;20080;-43
2022/11/16 15:08:44;;;;;;;54.45;12.40;;;;;;;;;;5012482;28;20053;-42
2022/11/16 15:11:19;;;;;;;46.67;11.63;;;;;;;;;;5004943;28;20053;-43
2022/11/16 15:13:46;;;;;;;70.43;14.30;;;;;;;;;;5003701;28;20046;-43
2022/11/16 15:16:16;;;;;;;36.83;11.02;;;;;;;;;;5012461;28;20077;-42
2022/11/16 15:18:59;;;;;;;47.53;11.00;;;;;;;;;;5007531;28;20150;-42
2022/11/16 15:21:26;;;;;;;50.20;12.60;;;;;;;;;;5007348;28;20042;-42
2022/11/16 15:23:53;;;;;;;78.05;12.90;;;;;;;;;;5008371;28;20064;-43
2022/11/16 15:26:39;;;;;;;43.55;11.07;;;;;;;;;;5010151;28;20041;-42